Terminal Aerodrome Forecast
Issued by NWS

Home | Current Version | Previous Version | Graphics & Text | Print | Product List | Glossary On
Versions: 1 2 3 4 5 6 7 8 9 10 11 12 13 14 15 16 17 18 19 20 21 22
000
FTUS43 KBIS 281100
TAFMOT
TAF
KMOT 281133Z 2812/2912 36011KT P6SM OVC050
     FM281400 36016G22KT P6SM -SHRA SCT020 BKN030 OVC050
     FM281700 01015KT P6SM -SHRA BKN015 OVC025
     FM290300 03010KT 5SM BR VCSH BKN010 OVC020
     FM290800 06008KT 4SM BR BKN010 OVC015=

USA.gov is the U.S. government's official web portal to all federal, state and local government web resources and services.